createdAt,value
2023-03-19T00:00:10.476Z,10.70
2023-03-19T00:02:45.719Z,10.70
2023-03-19T00:05:20.634Z,10.70
2023-03-19T00:08:08.536Z,10.70
2023-03-19T00:10:47.879Z,10.70
2023-03-19T00:13:16.458Z,10.60
2023-03-19T00:15:53.615Z,10.70
2023-03-19T00:18:22.218Z,10.70
2023-03-19T00:20:57.664Z,10.70
2023-03-19T00:23:33.312Z,10.60
2023-03-19T00:26:02.115Z,10.60
2023-03-19T00:28:37.921Z,10.60
2023-03-19T00:31:19.980Z,10.60
2023-03-19T00:33:48.415Z,10.60
2023-03-19T00:36:24.906Z,10.60
2023-03-19T00:38:59.675Z,10.60
2023-03-19T00:41:28.883Z,10.60
2023-03-19T00:44:04.908Z,10.60
2023-03-19T00:46:41.706Z,10.60
2023-03-19T00:49:12.013Z,10.60
2023-03-19T00:51:50.818Z,10.60
2023-03-19T00:54:19.643Z,10.60
2023-03-19T00:56:54.700Z,10.60
2023-03-19T00:59:31.573Z,10.60
2023-03-19T01:02:01.762Z,10.60
2023-03-19T01:04:36.645Z,10.60
2023-03-19T01:07:18.914Z,10.60
2023-03-19T01:09:54.166Z,10.60
2023-03-19T01:12:29.673Z,10.60
2023-03-19T01:15:05.003Z,10.60
2023-03-19T01:17:35.121Z,10.50
2023-03-19T01:20:10.976Z,10.50
2023-03-19T01:22:45.644Z,10.50
2023-03-19T01:25:16.311Z,10.50
2023-03-19T01:27:51.971Z,10.60
2023-03-19T01:30:28.022Z,10.60
2023-03-19T01:32:58.114Z,10.60
2023-03-19T01:35:32.707Z,10.60
2023-03-19T01:38:07.700Z,10.60
2023-03-19T01:40:36.712Z,10.60
2023-03-19T01:43:25.728Z,10.50
2023-03-19T01:45:58.767Z,10.60
2023-03-19T01:48:41.055Z,10.60
2023-03-19T01:51:12.534Z,10.60
2023-03-19T01:53:49.809Z,10.60
2023-03-19T01:56:22.097Z,10.60
2023-03-19T01:59:01.976Z,10.60
2023-03-19T02:01:43.155Z,10.60
2023-03-19T02:04:33.806Z,10.60
2023-03-19T02:07:09.685Z,10.60
2023-03-19T02:09:44.662Z,10.60
2023-03-19T02:12:13.767Z,10.60
2023-03-19T02:14:48.854Z,10.70
2023-03-19T02:17:17.223Z,10.70
2023-03-19T02:20:00.962Z,10.70
2023-03-19T02:22:38.890Z,10.70
2023-03-19T02:25:13.177Z,10.70
2023-03-19T02:27:49.852Z,10.70
2023-03-19T02:30:32.047Z,10.70
2023-03-19T02:33:01.028Z,10.70
2023-03-19T02:35:41.688Z,10.60
2023-03-19T02:38:17.677Z,10.60
2023-03-19T02:40:51.895Z,10.70
2023-03-19T02:43:29.857Z,10.70
2023-03-19T02:45:58.921Z,10.70
2023-03-19T02:48:34.016Z,10.60
2023-03-19T02:51:02.405Z,10.60
2023-03-19T02:53:36.895Z,10.60
2023-03-19T02:56:11.769Z,10.60
2023-03-19T02:58:41.390Z,10.60
2023-03-19T03:01:15.747Z,10.60
2023-03-19T03:03:50.760Z,10.60
2023-03-19T03:06:19.184Z,10.60
2023-03-19T03:08:53.726Z,10.60
2023-03-19T03:11:22.843Z,10.60
2023-03-19T03:13:59.733Z,10.60
2023-03-19T03:16:28.305Z,10.70
2023-03-19T03:19:02.776Z,10.70
2023-03-19T03:21:32.718Z,10.60
2023-03-19T03:24:08.725Z,10.60
2023-03-19T03:26:38.971Z,10.70
2023-03-19T03:29:15.714Z,10.60
2023-03-19T03:31:50.785Z,10.60
2023-03-19T03:34:19.352Z,10.60
2023-03-19T03:36:54.998Z,10.60
2023-03-19T03:39:30.882Z,10.70
2023-03-19T03:41:59.066Z,10.70
2023-03-19T03:44:35.755Z,10.70
2023-03-19T03:47:10.828Z,10.70
2023-03-19T03:49:39.572Z,10.70
2023-03-19T03:52:14.759Z,10.70
2023-03-19T03:54:49.776Z,10.80
2023-03-19T03:57:18.217Z,10.80
2023-03-19T03:59:54.334Z,10.80
2023-03-19T04:02:29.962Z,10.70
2023-03-19T04:05:17.970Z,10.70
2023-03-19T04:07:53.770Z,10.70
2023-03-19T04:10:21.938Z,10.70
2023-03-19T04:12:56.825Z,10.70
2023-03-19T04:15:32.864Z,10.70
2023-03-19T04:18:01.067Z,10.60
2023-03-19T04:20:32.623Z,10.70
2023-03-19T04:23:08.942Z,10.70
2023-03-19T04:25:40.420Z,10.70
2023-03-19T04:28:15.774Z,10.60
2023-03-19T04:30:51.814Z,10.60
2023-03-19T04:33:20.124Z,10.70
2023-03-19T04:35:56.164Z,10.70
2023-03-19T04:38:32.815Z,10.70
2023-03-19T04:41:01.692Z,10.70
2023-03-19T04:43:36.798Z,10.70
2023-03-19T04:46:13.982Z,10.60
2023-03-19T04:48:42.720Z,10.60
2023-03-19T04:51:17.974Z,10.60
2023-03-19T04:53:52.989Z,10.70
2023-03-19T04:56:21.316Z,10.70
2023-03-19T04:58:49.641Z,10.60
2023-03-19T05:01:25.818Z,10.50
2023-03-19T05:04:14.040Z,10.60
2023-03-19T05:06:48.991Z,10.50
2023-03-19T05:09:17.621Z,10.50
2023-03-19T05:11:46.321Z,10.50
2023-03-19T05:14:21.001Z,10.40
2023-03-19T05:16:51.889Z,10.30
2023-03-19T05:19:26.901Z,10.30
2023-03-19T05:21:57.301Z,10.30
2023-03-19T05:24:31.997Z,10.30
2023-03-19T05:27:00.132Z,10.30
2023-03-19T05:29:34.819Z,10.30
2023-03-19T05:32:05.168Z,10.30
2023-03-19T05:34:39.864Z,10.20
2023-03-19T05:37:14.902Z,10.20
2023-03-19T05:39:43.073Z,10.10
2023-03-19T05:42:17.864Z,10.10
2023-03-19T05:44:53.147Z,10.00
2023-03-19T05:47:22.774Z,10.00
2023-03-19T05:49:57.946Z,10.00
2023-03-19T05:52:32.883Z,9.90
2023-03-19T05:55:01.495Z,9.90
2023-03-19T05:57:36.875Z,9.80
2023-03-19T06:00:12.859Z,9.80
2023-03-19T06:02:43.099Z,9.80
2023-03-19T06:05:25.025Z,9.80
2023-03-19T06:08:00.171Z,9.80
2023-03-19T06:10:35.373Z,9.80
2023-03-19T06:13:11.858Z,9.80
2023-03-19T06:15:40.663Z,9.70
2023-03-19T06:18:10.182Z,9.80
2023-03-19T06:20:45.054Z,9.80
2023-03-19T06:23:16.206Z,9.80
2023-03-19T06:25:51.004Z,9.80
2023-03-19T06:28:25.923Z,9.90
2023-03-19T06:30:56.600Z,9.90
2023-03-19T06:33:39.086Z,9.90
2023-03-19T06:36:13.896Z,9.90
2023-03-19T06:38:42.081Z,10.00
2023-03-19T06:41:16.912Z,10.00
2023-03-19T06:43:51.947Z,10.00
2023-03-19T06:46:20.260Z,10.00
2023-03-19T06:48:57.088Z,10.00
2023-03-19T06:51:34.062Z,10.00
2023-03-19T06:54:02.368Z,10.00
2023-03-19T06:56:36.932Z,10.10
2023-03-19T06:59:12.937Z,10.20
2023-03-19T07:01:42.227Z,10.20
2023-03-19T07:04:32.398Z,10.30
2023-03-19T07:07:02.527Z,10.30
2023-03-19T07:09:31.175Z,10.40
2023-03-19T07:12:06.109Z,10.50
2023-03-19T07:14:41.097Z,10.50
2023-03-19T07:17:10.459Z,10.50
2023-03-19T07:19:46.993Z,10.50
2023-03-19T07:22:15.388Z,10.50
2023-03-19T07:24:43.727Z,10.60
2023-03-19T07:27:19.032Z,10.60
2023-03-19T07:29:48.054Z,10.60
2023-03-19T07:32:16.648Z,10.70
2023-03-19T07:34:52.970Z,10.70
2023-03-19T07:37:22.518Z,10.80
2023-03-19T07:39:57.348Z,10.80
2023-03-19T07:42:32.116Z,10.80
2023-03-19T07:45:02.511Z,10.80
2023-03-19T07:47:37.961Z,10.70
2023-03-19T07:50:19.073Z,10.70
2023-03-19T07:52:47.902Z,10.70
2023-03-19T07:55:23.017Z,10.60
2023-03-19T07:57:57.987Z,10.70
2023-03-19T08:00:26.364Z,10.70
2023-03-19T08:03:02.111Z,10.70
2023-03-19T08:05:45.006Z,10.70
2023-03-19T08:08:19.371Z,10.70
2023-03-19T08:10:57.359Z,10.80
2023-03-19T08:13:32.163Z,10.80
2023-03-19T08:16:00.472Z,10.80
2023-03-19T08:18:35.139Z,10.80
2023-03-19T08:21:12.307Z,10.80
2023-03-19T08:23:40.547Z,10.90
2023-03-19T08:26:16.165Z,10.90
2023-03-19T08:28:51.377Z,11.00
2023-03-19T08:31:19.618Z,11.10
2023-03-19T08:33:56.230Z,11.10
2023-03-19T08:36:25.943Z,11.20
2023-03-19T08:39:02.311Z,11.20
2023-03-19T08:41:37.030Z,11.20
2023-03-19T08:44:05.302Z,11.20
2023-03-19T08:46:40.156Z,11.20
2023-03-19T08:49:15.028Z,11.40
2023-03-19T08:51:44.965Z,11.40
2023-03-19T08:54:22.573Z,11.50
2023-03-19T08:56:58.204Z,11.60
2023-03-19T08:59:26.487Z,11.60
2023-03-19T09:02:03.061Z,11.70
2023-03-19T09:04:43.382Z,11.70
2023-03-19T09:07:15.900Z,11.80
2023-03-19T09:09:51.154Z,11.80
2023-03-19T09:12:19.726Z,11.90
2023-03-19T09:14:55.250Z,12.00
2023-03-19T09:17:30.063Z,12.00
2023-03-19T09:19:58.984Z,12.10
2023-03-19T09:22:35.086Z,12.20
2023-03-19T09:25:10.067Z,12.30
2023-03-19T09:27:38.485Z,12.40
2023-03-19T09:30:16.114Z,12.50
2023-03-19T09:32:45.991Z,12.60
2023-03-19T09:35:14.246Z,12.60
2023-03-19T09:37:52.140Z,12.80
2023-03-19T09:40:26.456Z,13.00
2023-03-19T09:43:08.092Z,13.40
2023-03-19T09:45:40.737Z,13.50
2023-03-19T09:48:25.103Z,13.70
2023-03-19T09:50:54.321Z,13.90
2023-03-19T09:53:44.266Z,14.00
2023-03-19T09:56:23.090Z,14.00
2023-03-19T09:58:52.317Z,14.10
2023-03-19T10:01:34.411Z,14.40
2023-03-19T10:04:33.521Z,14.50
2023-03-19T10:07:25.374Z,14.60
2023-03-19T10:10:24.094Z,14.90
2023-03-19T10:13:09.093Z,15.00
2023-03-19T10:15:39.912Z,15.20
2023-03-19T10:18:20.157Z,15.50
2023-03-19T10:21:00.130Z,15.60
2023-03-19T10:23:40.947Z,15.70
2023-03-19T10:26:22.182Z,15.80
2023-03-19T10:29:11.138Z,15.80
2023-03-19T10:31:47.313Z,15.60
2023-03-19T10:34:39.303Z,15.10
2023-03-19T10:37:15.526Z,14.80
2023-03-19T10:39:52.563Z,14.70
2023-03-19T10:42:44.130Z,14.70
2023-03-19T10:45:22.936Z,15.00
2023-03-19T10:47:59.133Z,14.80
2023-03-19T10:50:39.141Z,14.60
2023-03-19T10:53:21.986Z,14.50
2023-03-19T10:56:02.185Z,14.40
2023-03-19T10:58:40.160Z,14.40
2023-03-19T11:01:10.232Z,14.40
2023-03-19T11:03:47.178Z,14.30
2023-03-19T11:06:33.192Z,14.40
2023-03-19T11:09:03.555Z,14.90
2023-03-19T11:11:44.253Z,15.40
2023-03-19T11:14:18.101Z,15.80
2023-03-19T11:17:05.192Z,15.80
2023-03-19T11:19:46.212Z,15.90
2023-03-19T11:22:21.021Z,16.40
2023-03-19T11:25:02.219Z,16.50
2023-03-19T11:27:34.279Z,16.30
2023-03-19T11:30:12.235Z,16.40
2023-03-19T11:33:23.698Z,16.50
2023-03-19T11:36:01.427Z,16.40
2023-03-19T11:38:43.183Z,16.20
2023-03-19T11:41:20.372Z,15.80
2023-03-19T11:44:01.610Z,15.50
2023-03-19T11:47:01.223Z,15.40
2023-03-19T11:49:52.419Z,15.40
2023-03-19T11:52:36.223Z,15.30
2023-03-19T11:55:22.208Z,15.30
2023-03-19T11:58:11.095Z,15.40
2023-03-19T12:00:53.006Z,15.50
2023-03-19T12:04:06.394Z,15.40
2023-03-19T12:06:53.460Z,15.40
2023-03-19T12:09:38.365Z,15.40
2023-03-19T12:12:18.882Z,15.40
2023-03-19T12:15:06.221Z,15.40
2023-03-19T12:17:51.030Z,15.50
2023-03-19T12:20:40.252Z,15.90
2023-03-19T12:23:24.385Z,16.60
2023-03-19T12:26:06.113Z,16.90
2023-03-19T12:28:48.240Z,17.00
2023-03-19T12:31:35.781Z,17.20
2023-03-19T12:34:24.258Z,17.40
2023-03-19T12:36:59.872Z,17.50
2023-03-19T12:39:40.338Z,17.40
2023-03-19T12:42:20.205Z,17.00
2023-03-19T12:44:52.284Z,16.50
2023-03-19T12:47:30.426Z,16.40
2023-03-19T12:50:02.825Z,16.30
2023-03-19T12:52:43.275Z,16.20
2023-03-19T12:55:19.618Z,16.20
2023-03-19T12:57:57.305Z,16.10
2023-03-19T13:00:40.287Z,16.00
2023-03-19T13:03:16.656Z,15.80
2023-03-19T13:05:55.492Z,15.60
2023-03-19T13:08:38.509Z,15.50
2023-03-19T13:11:20.319Z,15.40
2023-03-19T13:13:54.545Z,15.20
2023-03-19T13:16:41.262Z,15.10
2023-03-19T13:19:20.238Z,14.90
2023-03-19T13:21:59.666Z,15.10
2023-03-19T13:24:32.588Z,15.10
2023-03-19T13:27:09.280Z,14.70
2023-03-19T13:29:39.194Z,14.30
2023-03-19T13:32:16.309Z,14.40
2023-03-19T13:34:44.654Z,14.50
2023-03-19T13:37:22.453Z,14.70
2023-03-19T13:39:52.684Z,14.80
2023-03-19T13:42:44.306Z,14.80
2023-03-19T13:45:37.592Z,14.80
2023-03-19T13:48:42.275Z,14.60
2023-03-19T13:51:27.162Z,14.40
2023-03-19T13:54:02.316Z,14.50
2023-03-19T13:56:54.621Z,14.50
2023-03-19T13:59:34.350Z,14.50
2023-03-19T14:02:03.669Z,14.50
2023-03-19T14:04:40.316Z,14.50
2023-03-19T14:07:22.445Z,14.40
2023-03-19T14:09:59.339Z,14.40
2023-03-19T14:12:47.504Z,14.30
2023-03-19T14:15:20.722Z,14.20
2023-03-19T14:18:05.384Z,14.30
2023-03-19T14:20:43.276Z,14.40
2023-03-19T14:23:36.127Z,14.40
2023-03-19T14:26:20.480Z,14.40
2023-03-19T14:29:01.134Z,14.40
2023-03-19T14:31:50.448Z,14.50
2023-03-19T14:34:23.726Z,14.50
2023-03-19T14:37:06.362Z,14.50
2023-03-19T14:39:40.819Z,14.40
2023-03-19T14:42:26.460Z,14.20
2023-03-19T14:45:29.816Z,14.10
2023-03-19T14:48:46.566Z,14.20
2023-03-19T14:51:41.679Z,14.30
2023-03-19T14:54:29.454Z,14.30
2023-03-19T14:56:58.757Z,14.30
2023-03-19T14:59:33.586Z,14.30
2023-03-19T15:02:03.409Z,14.40
2023-03-19T15:04:38.462Z,14.30
2023-03-19T15:07:30.595Z,14.30
2023-03-19T15:10:06.760Z,14.30
2023-03-19T15:13:15.401Z,14.30
2023-03-19T15:16:13.413Z,14.30
2023-03-19T15:18:44.410Z,14.10
2023-03-19T15:21:19.399Z,13.90
2023-03-19T15:23:48.655Z,13.90
2023-03-19T15:26:25.409Z,13.80
2023-03-19T15:28:55.263Z,13.80
2023-03-19T15:31:44.027Z,13.90
2023-03-19T15:34:24.218Z,13.90
2023-03-19T15:37:02.609Z,14.00
2023-03-19T15:39:36.390Z,14.00
2023-03-19T15:42:14.628Z,13.80
2023-03-19T15:44:48.177Z,13.70
2023-03-19T15:47:28.440Z,13.70
2023-03-19T15:50:03.507Z,13.60
2023-03-19T15:52:39.466Z,13.30
2023-03-19T15:55:15.573Z,13.10
2023-03-19T15:57:46.142Z,12.90
2023-03-19T16:00:22.552Z,12.80
2023-03-19T16:03:00.589Z,12.70
2023-03-19T16:05:50.421Z,12.70
2023-03-19T16:08:29.589Z,12.60
2023-03-19T16:11:21.509Z,12.60
2023-03-19T16:14:04.503Z,12.60
2023-03-19T16:16:34.400Z,12.50
2023-03-19T16:19:09.523Z,12.30
2023-03-19T16:21:42.394Z,12.30
2023-03-19T16:24:27.654Z,12.30
2023-03-19T16:26:58.217Z,12.20
2023-03-19T16:29:35.593Z,12.00
2023-03-19T16:32:06.608Z,11.60
2023-03-19T16:34:49.634Z,11.60
2023-03-19T16:37:33.944Z,11.50
2023-03-19T16:40:10.626Z,11.20
2023-03-19T16:42:40.418Z,11.10
2023-03-19T16:45:33.850Z,11.00
2023-03-19T16:48:04.255Z,10.90
2023-03-19T16:50:41.501Z,11.00
2023-03-19T16:53:21.792Z,10.90
2023-03-19T16:55:57.497Z,10.90
2023-03-19T16:58:37.704Z,10.90
2023-03-19T17:01:13.505Z,10.90
2023-03-19T17:03:48.491Z,10.90
2023-03-19T17:06:30.535Z,10.90
2023-03-19T17:09:07.117Z,10.80
2023-03-19T17:11:45.489Z,10.60
2023-03-19T17:14:26.529Z,10.50
2023-03-19T17:16:56.935Z,10.40
2023-03-19T17:19:33.625Z,10.40
2023-03-19T17:22:08.652Z,10.30
2023-03-19T17:24:38.789Z,10.30
2023-03-19T17:27:13.533Z,10.40
2023-03-19T17:29:41.901Z,10.40
2023-03-19T17:32:25.852Z,10.50
2023-03-19T17:35:00.505Z,10.30
2023-03-19T17:37:30.893Z,10.30
2023-03-19T17:40:07.535Z,10.30
2023-03-19T17:42:37.658Z,10.30
2023-03-19T17:45:07.030Z,10.20
2023-03-19T17:47:42.667Z,10.10
2023-03-19T17:50:24.560Z,10.00
2023-03-19T17:52:53.343Z,10.00
2023-03-19T17:55:31.509Z,10.00
2023-03-19T17:58:00.381Z,10.00
2023-03-19T18:00:38.449Z,10.00
2023-03-19T18:03:07.089Z,9.90
2023-03-19T18:05:41.709Z,10.00
2023-03-19T18:08:19.392Z,9.90
2023-03-19T18:10:55.562Z,9.90
2023-03-19T18:13:23.770Z,9.90
2023-03-19T18:15:58.843Z,9.90
2023-03-19T18:18:27.516Z,9.90
2023-03-19T18:21:02.596Z,9.80
2023-03-19T18:23:53.598Z,9.90
2023-03-19T18:26:30.129Z,9.90
2023-03-19T18:29:05.736Z,9.80
2023-03-19T18:31:34.335Z,9.90
2023-03-19T18:34:12.740Z,9.90
2023-03-19T18:36:42.878Z,9.90
2023-03-19T18:39:20.638Z,9.90
2023-03-19T18:41:56.914Z,9.90
2023-03-19T18:44:25.185Z,9.90
2023-03-19T18:46:59.735Z,9.80
2023-03-19T18:49:35.767Z,9.60
2023-03-19T18:52:04.349Z,9.50
2023-03-19T18:54:39.570Z,9.50
2023-03-19T18:57:20.588Z,9.50
2023-03-19T18:59:48.949Z,9.50
2023-03-19T19:02:34.648Z,9.50
2023-03-19T19:05:11.258Z,9.50
2023-03-19T19:07:52.589Z,9.50
2023-03-19T19:10:21.080Z,9.60
2023-03-19T19:12:58.593Z,9.60
2023-03-19T19:15:31.261Z,9.50
2023-03-19T19:18:07.611Z,9.50
2023-03-19T19:20:42.597Z,9.50
2023-03-19T19:23:11.346Z,9.50
2023-03-19T19:25:46.569Z,9.50
2023-03-19T19:28:26.971Z,9.50
2023-03-19T19:31:03.976Z,9.60
2023-03-19T19:33:42.686Z,9.50
2023-03-19T19:36:12.363Z,9.50
2023-03-19T19:38:47.821Z,9.50
2023-03-19T19:41:18.081Z,9.40
2023-03-19T19:43:54.634Z,9.30
2023-03-19T19:46:25.820Z,9.20
2023-03-19T19:49:00.661Z,9.20
2023-03-19T19:51:31.047Z,9.20
2023-03-19T19:53:59.314Z,9.10
2023-03-19T19:56:34.696Z,9.10
2023-03-19T19:59:07.403Z,9.10
2023-03-19T20:01:43.750Z,9.10
2023-03-19T20:04:15.514Z,9.10
2023-03-19T20:06:57.657Z,9.10
2023-03-19T20:09:27.546Z,9.00
2023-03-19T20:12:02.657Z,9.10
2023-03-19T20:14:38.675Z,9.10
2023-03-19T20:17:06.993Z,9.10
2023-03-19T20:19:41.850Z,9.10
2023-03-19T20:22:10.051Z,9.10
2023-03-19T20:24:49.445Z,9.00
2023-03-19T20:27:28.877Z,9.10
2023-03-19T20:29:58.948Z,9.00
2023-03-19T20:32:39.699Z,9.00
2023-03-19T20:35:23.817Z,9.10
2023-03-19T20:37:53.221Z,9.10
2023-03-19T20:40:29.703Z,9.10
2023-03-19T20:43:04.709Z,9.10
2023-03-19T20:45:37.739Z,9.10
2023-03-19T20:48:19.683Z,9.10
2023-03-19T20:50:55.966Z,9.10
2023-03-19T20:53:24.942Z,9.10
2023-03-19T20:56:00.893Z,9.10
2023-03-19T20:58:33.612Z,9.10
2023-03-19T21:01:10.786Z,9.00
2023-03-19T21:03:46.708Z,9.00
2023-03-19T21:06:52.125Z,9.00
2023-03-19T21:09:28.884Z,9.00
2023-03-19T21:11:57.230Z,9.00
2023-03-19T21:14:33.680Z,9.00
2023-03-19T21:17:09.878Z,8.90
2023-03-19T21:19:40.181Z,8.90
2023-03-19T21:22:16.715Z,8.90
2023-03-19T21:24:51.985Z,9.00
2023-03-19T21:27:26.064Z,9.00
2023-03-19T21:30:01.915Z,9.00
2023-03-19T21:32:32.010Z,9.00
2023-03-19T21:35:06.883Z,9.00
2023-03-19T21:37:35.861Z,9.10
2023-03-19T21:40:10.914Z,9.10
2023-03-19T21:42:45.778Z,9.10
2023-03-19T21:45:24.155Z,9.10
2023-03-19T21:48:00.916Z,9.10
2023-03-19T21:50:35.773Z,9.10
2023-03-19T21:53:04.511Z,9.00
2023-03-19T21:55:40.876Z,8.90
2023-03-19T21:58:12.543Z,8.90
2023-03-19T22:00:47.997Z,8.80
2023-03-19T22:03:26.765Z,8.80
2023-03-19T22:06:14.741Z,8.70
2023-03-19T22:08:50.788Z,8.70
2023-03-19T22:11:22.207Z,8.70
2023-03-19T22:13:50.654Z,8.70
2023-03-19T22:16:27.819Z,8.70
2023-03-19T22:18:58.121Z,8.70
2023-03-19T22:21:32.780Z,8.70
2023-03-19T22:24:01.863Z,8.60
2023-03-19T22:26:32.031Z,8.60
2023-03-19T22:29:08.753Z,8.50
2023-03-19T22:31:37.454Z,8.50
2023-03-19T22:34:13.796Z,8.60
2023-03-19T22:36:42.475Z,8.60
2023-03-19T22:39:17.778Z,8.60
2023-03-19T22:41:54.765Z,8.60
2023-03-19T22:44:28.126Z,8.60
2023-03-19T22:47:04.941Z,8.60
2023-03-19T22:49:41.979Z,8.50
2023-03-19T22:52:13.303Z,8.50
2023-03-19T22:54:49.001Z,8.40
2023-03-19T22:57:23.834Z,8.30
2023-03-19T22:59:52.071Z,8.20
2023-03-19T23:02:26.796Z,8.20
2023-03-19T23:04:56.729Z,8.10
2023-03-19T23:07:38.822Z,8.00
2023-03-19T23:10:30.127Z,8.00
2023-03-19T23:12:58.876Z,7.90
2023-03-19T23:15:37.833Z,7.80
2023-03-19T23:18:17.837Z,7.80
2023-03-19T23:20:48.370Z,7.70
2023-03-19T23:23:23.848Z,7.60
2023-03-19T23:25:52.270Z,7.60
2023-03-19T23:28:28.909Z,7.50
2023-03-19T23:31:03.920Z,7.40
2023-03-19T23:33:32.750Z,7.40
2023-03-19T23:36:09.913Z,7.30
2023-03-19T23:38:38.179Z,7.30
2023-03-19T23:41:13.992Z,7.30
2023-03-19T23:43:48.814Z,7.30
2023-03-19T23:46:17.702Z,7.30
2023-03-19T23:48:52.929Z,7.20
2023-03-19T23:51:23.106Z,7.20
2023-03-19T23:53:51.388Z,7.20
2023-03-19T23:56:29.051Z,7.10
2023-03-19T23:59:00.561Z,7.10
